createdAt,value
2018-05-23T00:00:31.592Z,17.78
2018-05-23T00:01:31.061Z,17.86
2018-05-23T00:02:31.311Z,17.83
2018-05-23T00:03:31.044Z,17.74
2018-05-23T00:04:31.571Z,17.72
2018-05-23T00:05:31.576Z,17.74
2018-05-23T00:06:31.578Z,17.71
2018-05-23T00:07:31.322Z,17.67
2018-05-23T00:08:31.576Z,17.65
2018-05-23T00:09:31.568Z,17.76
2018-05-23T00:10:31.056Z,17.7
2018-05-23T00:11:31.315Z,17.63
2018-05-23T00:12:31.058Z,17.68
2018-05-23T00:13:33.215Z,17.7
2018-05-23T00:14:31.051Z,17.7
2018-05-23T00:15:31.578Z,17.6
2018-05-23T00:16:31.311Z,17.63
2018-05-23T00:17:31.581Z,17.68
2018-05-23T00:18:31.584Z,17.63
2018-05-23T00:19:31.309Z,17.57
2018-05-23T00:20:31.321Z,17.7
2018-05-23T00:21:31.310Z,17.7
2018-05-23T00:22:31.574Z,17.71
2018-05-23T00:23:31.585Z,17.7
2018-05-23T00:24:31.309Z,17.71
2018-05-23T00:25:31.588Z,17.68
2018-05-23T00:26:31.319Z,17.79
2018-05-23T00:27:31.612Z,17.78
2018-05-23T00:28:31.058Z,17.72
2018-05-23T00:29:31.581Z,17.74
2018-05-23T00:30:31.325Z,17.74
2018-05-23T00:31:31.598Z,17.7
2018-05-23T00:32:31.596Z,17.7
2018-05-23T00:33:31.611Z,17.72
2018-05-23T00:34:31.327Z,17.71
2018-05-23T00:35:31.592Z,17.68
2018-05-23T00:36:31.328Z,17.72
2018-05-23T00:37:31.329Z,17.74
2018-05-23T00:38:31.320Z,17.74
2018-05-23T00:39:31.586Z,17.76
2018-05-23T00:40:31.068Z,17.78
2018-05-23T00:41:31.322Z,17.78
2018-05-23T00:42:31.330Z,17.83
2018-05-23T00:43:32.649Z,17.83
2018-05-23T00:44:31.328Z,17.8
2018-05-23T00:45:31.589Z,17.74
2018-05-23T00:46:31.325Z,17.72
2018-05-23T00:47:31.600Z,17.76
2018-05-23T00:48:32.396Z,17.74
2018-05-23T00:49:31.602Z,17.76
2018-05-23T00:50:31.588Z,17.76
2018-05-23T00:51:31.589Z,17.76
2018-05-23T00:52:31.337Z,17.8
2018-05-23T00:53:31.331Z,17.78
2018-05-23T00:54:31.081Z,17.82
2018-05-23T00:55:31.596Z,17.82
2018-05-23T00:56:31.332Z,17.74
2018-05-23T00:57:31.408Z,17.76
2018-05-23T00:58:31.073Z,17.72
2018-05-23T00:59:31.071Z,17.76
2018-05-23T01:00:31.624Z,17.76
2018-05-23T01:01:31.334Z,17.8
2018-05-23T01:02:31.076Z,17.78
2018-05-23T01:03:31.595Z,17.8
2018-05-23T01:04:31.341Z,17.83
2018-05-23T01:05:31.590Z,17.78
2018-05-23T01:06:31.609Z,17.74
2018-05-23T01:07:31.611Z,17.89
2018-05-23T01:08:31.100Z,17.8
2018-05-23T01:09:31.608Z,17.86
2018-05-23T01:10:31.350Z,17.86
2018-05-23T01:11:31.353Z,17.79
2018-05-23T01:12:31.616Z,17.82
2018-05-23T01:13:31.625Z,17.71
2018-05-23T01:14:31.358Z,17.74
2018-05-23T01:15:31.369Z,17.71
2018-05-23T01:16:31.091Z,17.76
2018-05-23T01:17:31.617Z,17.78
2018-05-23T01:18:31.618Z,17.76
2018-05-23T01:19:31.343Z,17.74
2018-05-23T01:20:31.613Z,17.78
2018-05-23T01:21:31.633Z,17.71
2018-05-23T01:22:31.091Z,17.71
2018-05-23T01:23:31.625Z,17.72
2018-05-23T01:24:31.613Z,17.74
2018-05-23T01:25:31.629Z,17.64
2018-05-23T01:26:31.356Z,17.63
2018-05-23T01:27:31.622Z,17.64
2018-05-23T01:28:31.619Z,17.63
2018-05-23T01:29:31.620Z,17.63
2018-05-23T01:30:31.621Z,17.56
2018-05-23T01:31:31.100Z,17.6
2018-05-23T01:32:31.668Z,17.49
2018-05-23T01:33:31.432Z,17.52
2018-05-23T01:34:31.371Z,17.49
2018-05-23T01:35:31.637Z,17.36
2018-05-23T01:36:31.378Z,17.41
2018-05-23T01:37:31.625Z,17.41
2018-05-23T01:38:31.617Z,17.49
2018-05-23T01:39:31.621Z,17.56
2018-05-23T01:40:31.100Z,17.46
2018-05-23T01:41:31.626Z,17.52
2018-05-23T01:42:31.634Z,17.45
2018-05-23T01:43:31.369Z,17.49
2018-05-23T01:44:33.280Z,17.52
2018-05-23T01:45:31.623Z,17.48
2018-05-23T01:46:31.629Z,17.54
2018-05-23T01:47:31.379Z,17.6
2018-05-23T01:48:31.360Z,17.56
2018-05-23T01:49:31.379Z,17.54
2018-05-23T01:50:31.115Z,17.51
2018-05-23T01:51:31.366Z,17.48
2018-05-23T01:52:31.626Z,17.48
2018-05-23T01:53:31.376Z,17.44
2018-05-23T01:54:31.640Z,17.38
2018-05-23T01:55:31.627Z,17.41
2018-05-23T01:56:31.134Z,17.33
2018-05-23T01:57:31.361Z,17.27
2018-05-23T01:58:31.646Z,17.16
2018-05-23T01:59:31.120Z,17.19
2018-05-23T02:00:31.372Z,17.14
2018-05-23T02:01:31.373Z,17.12
2018-05-23T02:02:31.376Z,17.05
2018-05-23T02:03:31.380Z,16.97
2018-05-23T02:04:31.635Z,16.96
2018-05-23T02:05:31.380Z,16.93
2018-05-23T02:06:31.640Z,16.86
2018-05-23T02:07:32.398Z,16.83
2018-05-23T02:08:31.628Z,16.84
2018-05-23T02:09:31.367Z,16.86
2018-05-23T02:10:31.365Z,16.87
2018-05-23T02:11:31.366Z,16.9
2018-05-23T02:12:31.631Z,16.86
2018-05-23T02:13:31.648Z,16.89
2018-05-23T02:14:31.254Z,16.75
2018-05-23T02:15:31.627Z,16.83
2018-05-23T02:16:31.364Z,16.81
2018-05-23T02:17:31.614Z,16.84
2018-05-23T02:18:31.373Z,16.87
2018-05-23T02:19:31.646Z,16.81
2018-05-23T02:20:32.567Z,16.87
2018-05-23T02:21:31.417Z,16.9
2018-05-23T02:22:31.632Z,16.9
2018-05-23T02:23:31.628Z,16.76
2018-05-23T02:24:31.642Z,16.74
2018-05-23T02:25:31.108Z,16.81
2018-05-23T02:26:31.729Z,16.79
2018-05-23T02:27:31.712Z,16.78
2018-05-23T02:28:31.644Z,16.78
2018-05-23T02:29:31.423Z,16.84
2018-05-23T02:30:31.635Z,16.83
2018-05-23T02:31:31.657Z,16.89
2018-05-23T02:32:31.365Z,16.81
2018-05-23T02:33:31.124Z,16.86
2018-05-23T02:34:31.112Z,16.74
2018-05-23T02:35:31.374Z,16.84
2018-05-23T02:36:31.110Z,16.75
2018-05-23T02:37:31.643Z,16.78
2018-05-23T02:38:31.111Z,16.78
2018-05-23T02:39:31.633Z,16.76
2018-05-23T02:40:31.637Z,16.68
2018-05-23T02:41:31.109Z,16.66
2018-05-23T02:42:31.367Z,16.65
2018-05-23T02:43:31.108Z,16.64
2018-05-23T02:44:32.584Z,16.57
2018-05-23T02:45:31.371Z,16.56
2018-05-23T02:46:31.624Z,16.66
2018-05-23T02:47:31.109Z,16.64
2018-05-23T02:48:31.383Z,16.66
2018-05-23T02:49:31.364Z,16.74
2018-05-23T02:50:31.643Z,16.71
2018-05-23T02:51:31.115Z,16.71
2018-05-23T02:52:31.649Z,16.68
2018-05-23T02:53:31.125Z,16.74
2018-05-23T02:54:31.380Z,16.71
2018-05-23T02:55:31.624Z,16.76
2018-05-23T02:56:31.114Z,16.76
2018-05-23T02:57:31.387Z,16.69
2018-05-23T02:58:31.122Z,16.78
2018-05-23T02:59:31.388Z,16.75
2018-05-23T03:00:31.131Z,16.75
2018-05-23T03:01:31.375Z,16.75
2018-05-23T03:02:31.626Z,16.74
2018-05-23T03:03:31.105Z,16.76
2018-05-23T03:04:31.680Z,16.69
2018-05-23T03:05:31.101Z,16.75
2018-05-23T03:06:31.638Z,16.72
2018-05-23T03:07:31.099Z,16.66
2018-05-23T03:08:31.362Z,16.64
2018-05-23T03:09:31.360Z,16.69
2018-05-23T03:10:31.369Z,16.68
2018-05-23T03:11:31.373Z,16.68
2018-05-23T03:12:31.365Z,16.71
2018-05-23T03:13:31.361Z,16.66
2018-05-23T03:14:31.359Z,16.66
2018-05-23T03:15:31.368Z,16.69
2018-05-23T03:16:31.637Z,16.6
2018-05-23T03:17:31.620Z,16.53
2018-05-23T03:18:31.107Z,16.65
2018-05-23T03:19:31.397Z,16.56
2018-05-23T03:20:31.358Z,16.64
2018-05-23T03:21:31.626Z,16.57
2018-05-23T03:22:31.367Z,16.53
2018-05-23T03:23:31.625Z,16.51
2018-05-23T03:24:31.639Z,16.56
2018-05-23T03:25:31.369Z,16.47
2018-05-23T03:26:31.368Z,16.53
2018-05-23T03:27:31.363Z,16.49
2018-05-23T03:28:31.618Z,16.5
2018-05-23T03:29:31.372Z,16.53
2018-05-23T03:30:31.638Z,16.57
2018-05-23T03:31:31.368Z,16.58
2018-05-23T03:32:31.377Z,16.58
2018-05-23T03:33:31.451Z,16.57
2018-05-23T03:34:31.624Z,16.53
2018-05-23T03:35:31.384Z,16.71
2018-05-23T03:36:31.109Z,16.72
2018-05-23T03:37:31.112Z,16.69
2018-05-23T03:38:31.366Z,16.71
2018-05-23T03:39:31.113Z,16.76
2018-05-23T03:40:31.112Z,16.75
2018-05-23T03:41:31.382Z,16.79
2018-05-23T03:42:31.631Z,16.75
2018-05-23T03:43:31.364Z,16.84
2018-05-23T03:44:31.619Z,16.86
2018-05-23T03:45:31.640Z,16.96
2018-05-23T03:46:31.118Z,16.83
2018-05-23T03:47:31.642Z,16.84
2018-05-23T03:48:31.623Z,16.86
2018-05-23T03:49:31.377Z,16.84
2018-05-23T03:50:31.114Z,16.87
2018-05-23T03:51:31.631Z,16.89
2018-05-23T03:52:31.128Z,16.89
2018-05-23T03:53:31.102Z,16.84
2018-05-23T03:54:31.098Z,16.89
2018-05-23T03:55:31.637Z,16.78
2018-05-23T03:56:31.362Z,16.78
2018-05-23T03:57:31.627Z,16.86
2018-05-23T03:58:31.364Z,16.9
2018-05-23T03:59:31.365Z,16.84
2018-05-23T04:00:31.667Z,16.74
2018-05-23T04:01:31.098Z,16.89
2018-05-23T04:02:31.119Z,16.79
2018-05-23T04:03:31.623Z,16.76
2018-05-23T04:04:31.383Z,16.74
2018-05-23T04:05:31.135Z,16.72
2018-05-23T04:06:31.360Z,16.81
2018-05-23T04:07:31.642Z,16.76
2018-05-23T04:08:31.647Z,16.76
2018-05-23T04:09:31.364Z,16.79
2018-05-23T04:10:31.649Z,16.84
2018-05-23T04:11:31.380Z,16.83
2018-05-23T04:12:31.363Z,16.72
2018-05-23T04:13:31.375Z,16.75
2018-05-23T04:14:31.677Z,16.76
2018-05-23T04:15:31.832Z,16.76
2018-05-23T04:16:31.367Z,16.76
2018-05-23T04:17:31.621Z,16.78
2018-05-23T04:18:31.627Z,16.74
2018-05-23T04:19:31.369Z,16.69
2018-05-23T04:20:31.361Z,16.69
2018-05-23T04:21:31.623Z,16.68
2018-05-23T04:22:31.615Z,16.69
2018-05-23T04:23:31.358Z,16.65
2018-05-23T04:24:31.697Z,16.66
2018-05-23T04:25:31.356Z,16.69
2018-05-23T04:26:31.362Z,16.69
2018-05-23T04:27:31.366Z,16.64
2018-05-23T04:28:31.626Z,16.58
2018-05-23T04:29:31.114Z,16.53
2018-05-23T04:30:31.620Z,16.66
2018-05-23T04:31:31.379Z,16.64
2018-05-23T04:32:31.642Z,16.65
2018-05-23T04:33:31.359Z,16.66
2018-05-23T04:34:31.091Z,16.65
2018-05-23T04:35:31.377Z,16.68
2018-05-23T04:36:31.354Z,16.53
2018-05-23T04:37:31.626Z,16.5
2018-05-23T04:38:31.349Z,16.56
2018-05-23T04:39:31.796Z,16.6
2018-05-23T04:40:31.350Z,16.57
2018-05-23T04:41:31.546Z,16.58
2018-05-23T04:42:31.642Z,16.57
2018-05-23T04:43:31.601Z,16.58
2018-05-23T04:44:31.362Z,16.5
2018-05-23T04:45:31.603Z,16.64
2018-05-23T04:46:31.618Z,16.66
2018-05-23T04:47:31.354Z,16.72
2018-05-23T04:48:31.610Z,16.66
2018-05-23T04:49:31.614Z,16.6
2018-05-23T04:50:31.347Z,16.66
2018-05-23T04:51:31.337Z,16.69
2018-05-23T04:52:31.619Z,16.69
2018-05-23T04:53:31.609Z,16.78
2018-05-23T04:54:31.616Z,16.76
2018-05-23T04:55:31.362Z,16.84
2018-05-23T04:56:31.622Z,16.9
2018-05-23T04:57:31.088Z,16.9
2018-05-23T04:58:31.340Z,16.87
2018-05-23T04:59:31.344Z,16.78
2018-05-23T05:00:31.615Z,16.94
2018-05-23T05:01:31.408Z,16.86
2018-05-23T05:02:31.161Z,16.9
2018-05-23T05:03:31.598Z,16.94
2018-05-23T05:04:31.085Z,16.94
2018-05-23T05:05:31.345Z,16.97
2018-05-23T05:06:31.367Z,16.91
2018-05-23T05:07:31.342Z,16.97
2018-05-23T05:08:31.342Z,16.91
2018-05-23T05:09:31.596Z,16.96
2018-05-23T05:10:31.599Z,17.04
2018-05-23T05:11:31.337Z,17.04
2018-05-23T05:12:31.357Z,17.02
2018-05-23T05:13:31.600Z,17.01
2018-05-23T05:14:31.592Z,17.06
2018-05-23T05:15:35.097Z,17.05
2018-05-23T05:16:31.594Z,17.09
2018-05-23T05:17:31.331Z,17.08
2018-05-23T05:18:31.338Z,17.08
2018-05-23T05:19:31.338Z,17.08
2018-05-23T05:20:31.596Z,17.11
2018-05-23T05:21:31.591Z,17.12
2018-05-23T05:22:31.361Z,17.12
2018-05-23T05:23:31.661Z,17.15
2018-05-23T05:24:31.373Z,17.15
2018-05-23T05:25:31.600Z,17.14
2018-05-23T05:26:31.340Z,17.06
2018-05-23T05:27:31.332Z,17.05
2018-05-23T05:28:31.339Z,17.11
2018-05-23T05:29:31.602Z,17.09
2018-05-23T05:30:31.347Z,17.14
2018-05-23T05:31:31.348Z,17.14
2018-05-23T05:32:31.186Z,17.15
2018-05-23T05:33:31.616Z,17.19
2018-05-23T05:34:31.353Z,17.3
2018-05-23T05:35:31.419Z,17.29
2018-05-23T05:36:31.684Z,17.36
2018-05-23T05:37:31.338Z,17.31
2018-05-23T05:38:31.348Z,17.31
2018-05-23T05:39:31.599Z,17.45
2018-05-23T05:40:31.626Z,17.39
2018-05-23T05:41:31.617Z,17.51
2018-05-23T05:42:31.626Z,17.54
2018-05-23T05:43:31.628Z,17.56
2018-05-23T05:44:31.350Z,17.59
2018-05-23T05:45:31.617Z,17.57
2018-05-23T05:46:31.605Z,17.63
2018-05-23T05:47:31.359Z,17.63
2018-05-23T05:48:31.351Z,17.6
2018-05-23T05:49:31.349Z,17.65
2018-05-23T05:50:31.350Z,17.65
2018-05-23T05:51:31.347Z,17.7
2018-05-23T05:52:31.621Z,17.76
2018-05-23T05:53:31.611Z,17.78
2018-05-23T05:54:31.616Z,17.74
2018-05-23T05:55:31.345Z,17.74
2018-05-23T05:56:31.391Z,17.67
2018-05-23T05:57:31.356Z,17.59
2018-05-23T05:58:31.608Z,17.63
2018-05-23T05:59:31.620Z,17.63
2018-05-23T06:00:31.352Z,17.63
2018-05-23T06:01:31.612Z,17.6
2018-05-23T06:02:31.356Z,17.64
2018-05-23T06:03:31.616Z,17.68
2018-05-23T06:04:31.356Z,17.71
2018-05-23T06:05:31.432Z,17.72
2018-05-23T06:06:31.626Z,17.74
2018-05-23T06:07:31.616Z,17.79
2018-05-23T06:08:31.626Z,17.83
2018-05-23T06:09:31.793Z,17.92
2018-05-23T06:10:31.670Z,18.07
2018-05-23T06:11:31.392Z,18.19
2018-05-23T06:12:31.362Z,18.19
2018-05-23T06:13:31.673Z,18.28
2018-05-23T06:23:10.619Z,18.95
2018-05-23T06:24:10.640Z,18.96
2018-05-23T06:25:10.494Z,18.99
2018-05-23T06:26:10.686Z,19.07
2018-05-23T06:27:10.604Z,19.07
2018-05-23T06:28:10.335Z,19.11
2018-05-23T06:29:10.099Z,19.12
2018-05-23T06:30:10.545Z,19.21
2018-05-23T06:31:10.341Z,19.18
2018-05-23T06:32:10.614Z,19.16
2018-05-23T06:33:10.344Z,19.19
2018-05-23T06:34:10.604Z,19.19
2018-05-23T06:35:10.709Z,19.3
2018-05-23T06:36:10.411Z,19.21
2018-05-23T06:37:10.599Z,19.22
2018-05-23T06:38:10.411Z,19.3
2018-05-23T06:39:10.602Z,19.3
2018-05-23T06:40:10.150Z,19.3
2018-05-23T06:41:10.623Z,19.29
2018-05-23T06:42:10.080Z,19.29
2018-05-23T06:43:10.613Z,19.22
2018-05-23T06:44:10.354Z,19.22
2018-05-23T06:45:10.181Z,19.26
2018-05-23T06:46:10.653Z,19.29
2018-05-23T06:47:10.611Z,19.19
2018-05-23T06:48:10.611Z,19.04
2018-05-23T06:49:10.354Z,18.88
2018-05-23T06:50:11.038Z,18.89
2018-05-23T06:51:10.624Z,18.86
2018-05-23T06:52:10.621Z,18.8
2018-05-23T06:53:10.358Z,18.83
2018-05-23T06:54:10.362Z,18.66
2018-05-23T06:55:16.140Z,18.66
2018-05-23T06:56:10.644Z,18.6
2018-05-23T06:57:10.118Z,18.7
2018-05-23T06:58:10.381Z,18.65
2018-05-23T06:59:10.375Z,18.7
2018-05-23T07:00:10.597Z,18.68
2018-05-23T07:01:10.113Z,18.81
2018-05-23T07:02:10.115Z,18.93
2018-05-23T07:03:10.471Z,19.04
2018-05-23T07:04:10.381Z,19.09
2018-05-23T07:05:10.369Z,19.29
2018-05-23T07:06:10.641Z,19.27
2018-05-23T07:07:10.672Z,19.21
2018-05-23T07:08:10.661Z,19.18
2018-05-23T07:09:10.391Z,19.16
2018-05-23T07:10:10.914Z,19.15
2018-05-23T07:11:10.931Z,19.18
2018-05-23T07:12:10.663Z,19.15
2018-05-23T07:13:10.144Z,19.16
2018-05-23T07:14:10.409Z,19.21
2018-05-23T07:15:10.666Z,19.18
2018-05-23T07:16:10.663Z,19.16
2018-05-23T07:17:10.417Z,19.16
2018-05-23T07:18:10.819Z,19.16
2018-05-23T07:19:10.664Z,19.15
2018-05-23T07:20:10.847Z,19.18
2018-05-23T07:21:10.457Z,19.26
2018-05-23T07:22:10.410Z,19.31
2018-05-23T07:23:10.426Z,19.29
2018-05-23T07:24:10.789Z,19.29
2018-05-23T07:25:10.564Z,19.44
2018-05-23T07:26:10.682Z,19.49
2018-05-23T07:27:10.423Z,19.48
2018-05-23T07:28:10.436Z,19.74
2018-05-23T07:29:10.431Z,19.69
2018-05-23T07:30:10.633Z,19.79
2018-05-23T07:31:10.694Z,20
2018-05-23T07:32:10.690Z,20.02
2018-05-23T07:33:10.701Z,20.29
2018-05-23T07:34:10.435Z,20.39
2018-05-23T07:35:10.886Z,20.43
2018-05-23T07:36:10.445Z,20.5
2018-05-23T07:37:10.184Z,20.62
2018-05-23T07:38:10.247Z,20.72
2018-05-23T07:39:10.744Z,20.85
2018-05-23T07:40:10.365Z,21.07
2018-05-23T07:41:10.503Z,21.25
2018-05-23T07:42:10.477Z,21.2
2018-05-23T07:43:10.463Z,21.42
2018-05-23T07:44:10.475Z,21.22
2018-05-23T07:45:10.561Z,21.43
2018-05-23T07:46:10.225Z,21.37
2018-05-23T07:47:10.513Z,21.36
2018-05-23T07:48:10.244Z,21.36
2018-05-23T07:49:10.486Z,21.29
2018-05-23T07:50:10.654Z,21.14
2018-05-23T07:51:10.230Z,21.09
2018-05-23T07:52:10.517Z,21.03
2018-05-23T07:53:11.301Z,21.12
2018-05-23T07:54:10.751Z,21.27
2018-05-23T07:55:10.507Z,21.39
2018-05-23T07:56:10.814Z,21.52
2018-05-23T07:57:10.781Z,21.58
2018-05-23T07:58:11.309Z,21.76
2018-05-23T07:59:10.783Z,21.85
2018-05-23T08:00:10.385Z,21.89
2018-05-23T08:01:10.543Z,21.91
2018-05-23T08:02:10.265Z,22.11
2018-05-23T08:03:10.537Z,22.23
2018-05-23T08:04:10.564Z,22.32
2018-05-23T08:05:10.702Z,22.33
2018-05-23T08:06:10.548Z,22.3
2018-05-23T08:07:10.818Z,22.35
2018-05-23T08:08:10.559Z,22.36
2018-05-23T08:09:10.870Z,22.48
2018-05-23T08:10:10.842Z,22.63
2018-05-23T08:11:10.843Z,22.66
2018-05-23T08:12:10.323Z,22.63
2018-05-23T08:13:10.324Z,22.51
2018-05-23T08:14:10.585Z,22.6
2018-05-23T08:15:10.584Z,22.6
2018-05-23T08:16:10.861Z,22.55
2018-05-23T08:17:10.597Z,22.54
2018-05-23T08:18:10.602Z,22.33
2018-05-23T08:19:10.858Z,22.18
2018-05-23T08:20:10.726Z,22.15
2018-05-23T08:21:10.614Z,22.15
2018-05-23T08:22:10.605Z,22.2
2018-05-23T08:23:10.858Z,22.26
2018-05-23T08:24:10.627Z,22.33
2018-05-23T08:25:10.837Z,22.29
2018-05-23T08:26:10.692Z,22.33
2018-05-23T08:27:10.638Z,22.29
2018-05-23T08:28:10.646Z,22.33
2018-05-23T08:29:10.895Z,22.41
2018-05-23T08:30:11.070Z,22.45
2018-05-23T08:31:10.655Z,22.54
2018-05-23T08:32:10.656Z,22.51
2018-05-23T08:33:10.397Z,22.57
2018-05-23T08:34:10.662Z,22.68
2018-05-23T08:35:10.464Z,22.59
2018-05-23T08:36:11.012Z,22.5
2018-05-23T08:37:10.932Z,22.41
2018-05-23T08:38:10.423Z,22.28
2018-05-23T08:39:10.942Z,22.45
2018-05-23T08:40:10.647Z,22.53
2018-05-23T08:41:10.774Z,22.44
2018-05-23T08:42:10.709Z,22.3
2018-05-23T08:43:10.718Z,22.26
2018-05-23T08:44:10.711Z,22.23
2018-05-23T08:45:11.098Z,22.38
2018-05-23T08:46:10.823Z,22.65
2018-05-23T08:47:10.724Z,22.84
2018-05-23T08:48:10.713Z,22.98
2018-05-23T08:49:10.719Z,23.13
2018-05-23T08:50:11.169Z,23.12
2018-05-23T08:51:10.745Z,23.12
2018-05-23T08:52:10.746Z,23.05
2018-05-23T08:53:10.743Z,22.99
2018-05-23T08:54:10.489Z,22.98
2018-05-23T08:55:10.909Z,22.9
2018-05-23T08:56:10.815Z,22.85
2018-05-23T08:57:11.025Z,22.81
2018-05-23T08:58:10.770Z,22.81
2018-05-23T08:59:10.773Z,22.8
2018-05-23T09:00:10.939Z,22.75
2018-05-23T09:01:10.831Z,22.7
2018-05-23T09:02:11.043Z,22.62
2018-05-23T09:03:10.784Z,22.32
2018-05-23T09:04:10.535Z,22.25
2018-05-23T09:05:11.023Z,22.23
2018-05-23T09:06:11.100Z,22.26
2018-05-23T09:07:11.070Z,22.26
2018-05-23T09:08:10.801Z,22.26
2018-05-23T09:09:10.811Z,22.28
2018-05-23T09:10:10.665Z,22.33
2018-05-23T09:11:10.817Z,22.26
2018-05-23T09:12:11.231Z,22.11
2018-05-23T09:13:10.835Z,22
2018-05-23T09:14:10.836Z,21.93
2018-05-23T09:15:10.760Z,21.95
2018-05-23T09:16:11.112Z,21.92
2018-05-23T09:17:10.841Z,21.93
2018-05-23T09:18:11.111Z,21.88
2018-05-23T09:19:11.113Z,21.8
2018-05-23T09:20:11.023Z,21.92
2018-05-23T09:21:10.937Z,21.96
2018-05-23T09:22:10.602Z,22.11
2018-05-23T09:23:10.868Z,22.17
2018-05-23T09:24:10.930Z,22.26
2018-05-23T09:25:10.783Z,22.36
2018-05-23T09:26:10.885Z,22.3
2018-05-23T09:27:10.874Z,22.43
2018-05-23T09:28:10.903Z,22.36
2018-05-23T09:29:11.147Z,22.32
2018-05-23T09:30:10.948Z,22.43
2018-05-23T09:31:11.249Z,22.39
2018-05-23T09:32:11.341Z,22.54
2018-05-23T09:33:11.157Z,22.65
2018-05-23T09:34:11.161Z,22.81
2018-05-23T09:35:10.914Z,22.99
2018-05-23T09:36:11.172Z,23.13
2018-05-23T09:37:11.183Z,23.31
2018-05-23T09:38:10.922Z,23.34
2018-05-23T09:39:10.730Z,23.47
2018-05-23T09:40:10.863Z,23.41
2018-05-23T09:41:10.679Z,23.59
2018-05-23T09:42:10.938Z,23.68
2018-05-23T09:43:10.949Z,23.83
2018-05-23T09:44:11.216Z,23.99
2018-05-23T09:45:11.215Z,23.92
2018-05-23T09:46:11.040Z,23.8
2018-05-23T09:47:10.972Z,23.62
2018-05-23T09:48:10.968Z,23.44
2018-05-23T09:49:10.723Z,23.47
2018-05-23T09:50:10.896Z,23.58
2018-05-23T09:51:11.236Z,23.61
2018-05-23T09:52:11.261Z,23.78
2018-05-23T09:53:10.991Z,23.88
2018-05-23T09:54:11.027Z,23.96
2018-05-23T09:55:10.951Z,24.03
2018-05-23T09:56:11.003Z,24.18
2018-05-23T09:57:11.009Z,24.18
2018-05-23T09:58:11.284Z,24.26
2018-05-23T09:59:11.292Z,24.35
2018-05-23T10:00:11.383Z,24.33
2018-05-23T10:01:11.298Z,24.39
2018-05-23T10:02:11.298Z,24.45
2018-05-23T10:03:11.293Z,24.35
2018-05-23T10:04:11.316Z,24.42
2018-05-23T10:05:10.877Z,24.29
2018-05-23T10:06:11.306Z,24.02
2018-05-23T10:07:10.803Z,23.91
2018-05-23T10:08:11.065Z,23.84
2018-05-23T10:09:11.395Z,24.05
2018-05-23T10:10:11.221Z,24.14
2018-05-23T10:11:11.121Z,24.29
2018-05-23T10:12:11.084Z,24.45
2018-05-23T10:13:10.839Z,24.47
2018-05-23T10:14:11.143Z,24.6
2018-05-23T10:15:11.236Z,24.61
2018-05-23T10:16:11.413Z,24.58
2018-05-23T10:17:10.859Z,24.53
2018-05-23T10:18:11.134Z,24.53
2018-05-23T10:19:11.391Z,24.51
2018-05-23T10:20:11.550Z,24.36
2018-05-23T10:21:11.133Z,24.47
2018-05-23T10:22:10.879Z,24.48
2018-05-23T10:23:11.144Z,24.45
2018-05-23T10:53:50.670Z,25.13
2018-05-23T10:54:47.474Z,25.04
2018-05-23T10:55:47.718Z,24.96
2018-05-23T10:56:47.475Z,24.84
2018-05-23T10:57:47.464Z,24.6
2018-05-23T10:58:47.728Z,24.5
2018-05-23T10:59:47.736Z,24.29
2018-05-23T11:00:47.739Z,24.23
2018-05-23T11:01:47.484Z,24.17
2018-05-23T11:02:47.507Z,24.18
2018-05-23T11:03:47.755Z,24.24
2018-05-23T11:04:47.237Z,24.32
2018-05-23T11:05:47.340Z,24.21
2018-05-23T11:06:47.763Z,24.05
2018-05-23T11:07:47.241Z,24.08
2018-05-23T11:08:47.269Z,24.21
2018-05-23T11:09:47.510Z,24.33
2018-05-23T11:10:47.801Z,24.42
2018-05-23T11:11:47.523Z,24.43
2018-05-23T11:12:47.798Z,24.32
2018-05-23T11:13:47.788Z,24.28
2018-05-23T11:14:47.951Z,24.23
2018-05-23T11:15:47.792Z,24.18
2018-05-23T11:16:47.804Z,24.23
2018-05-23T11:17:47.546Z,24.21
2018-05-23T11:18:47.562Z,24.36
2018-05-23T11:19:47.830Z,24.33
2018-05-23T11:20:47.553Z,24.32
2018-05-23T11:21:47.571Z,24.29
2018-05-23T11:22:47.576Z,24.45
2018-05-23T11:23:48.395Z,24.29
2018-05-23T11:24:47.950Z,24.18
2018-05-23T11:25:47.608Z,24.11
2018-05-23T11:26:47.337Z,24.06
2018-05-23T11:27:47.602Z,24.17
2018-05-23T11:28:47.606Z,24.2
2018-05-23T11:29:48.104Z,24.3
2018-05-23T11:30:47.623Z,24.32
2018-05-23T11:31:47.616Z,24.26
2018-05-23T11:32:47.357Z,24.17
2018-05-23T11:33:47.626Z,24.21
2018-05-23T11:34:47.625Z,24.32
2018-05-23T11:35:47.894Z,24.33
2018-05-23T11:36:47.901Z,24.35
2018-05-23T11:37:47.899Z,24.29
2018-05-23T11:38:47.906Z,24.18
2018-05-23T11:39:47.400Z,24.13
2018-05-23T11:40:47.929Z,24.03
2018-05-23T11:41:47.934Z,23.93
2018-05-23T11:42:47.932Z,23.8
2018-05-23T11:43:47.812Z,23.77
2018-05-23T11:44:47.692Z,23.8
2018-05-23T11:45:47.944Z,23.93
2018-05-23T11:46:47.692Z,24.1
2018-05-23T11:47:47.712Z,24.23
2018-05-23T11:48:47.967Z,24.39
2018-05-23T11:49:47.744Z,24.3
2018-05-23T11:50:47.708Z,24.06
2018-05-23T11:51:47.996Z,23.76
2018-05-23T11:52:47.520Z,23.66
2018-05-23T11:53:47.731Z,23.54
2018-05-23T11:54:47.573Z,23.54
2018-05-23T11:55:47.999Z,23.56
2018-05-23T11:56:48.012Z,23.65
2018-05-23T11:57:47.480Z,23.74
2018-05-23T11:58:47.760Z,23.81
2018-05-23T11:59:47.752Z,24.02
2018-05-23T12:00:47.506Z,24.2
2018-05-23T12:01:47.811Z,24.26
2018-05-23T12:02:48.055Z,24.3
2018-05-23T12:03:48.039Z,24.39
2018-05-23T12:04:48.043Z,24.55
2018-05-23T12:05:47.529Z,24.51
2018-05-23T12:06:47.787Z,24.61
2018-05-23T12:07:48.063Z,24.69
2018-05-23T12:08:47.535Z,24.73
2018-05-23T12:09:47.535Z,24.81
2018-05-23T12:10:48.243Z,24.78
2018-05-23T12:11:47.804Z,24.91
2018-05-23T12:12:48.213Z,24.89
2018-05-23T12:13:47.587Z,24.86
2018-05-23T12:14:47.842Z,24.99
2018-05-23T12:15:47.837Z,25.01
2018-05-23T12:16:47.824Z,25.08
2018-05-23T12:17:47.576Z,24.98
2018-05-23T12:18:47.846Z,24.81
2018-05-23T12:19:48.243Z,24.58
2018-05-23T12:20:48.119Z,24.42
2018-05-23T12:21:47.860Z,24.4
2018-05-23T12:22:47.876Z,24.36
2018-05-23T12:23:47.869Z,24.17
2018-05-23T12:24:48.191Z,24.11
2018-05-23T12:25:47.883Z,24.14
2018-05-23T12:26:48.152Z,24.14
2018-05-23T12:27:47.881Z,24.1
2018-05-23T12:28:47.889Z,23.96
2018-05-23T12:29:47.900Z,23.96
2018-05-23T12:30:47.900Z,23.86
2018-05-23T12:31:48.163Z,23.91
2018-05-23T12:32:47.964Z,23.74
2018-05-23T12:33:47.923Z,23.78
2018-05-23T12:34:48.183Z,23.96
2018-05-23T12:35:48.185Z,23.96
2018-05-23T12:36:47.931Z,23.95
2018-05-23T12:37:48.208Z,24.01
2018-05-23T12:38:48.195Z,23.98
2018-05-23T12:39:47.943Z,24.03
2018-05-23T12:40:47.936Z,23.99
2018-05-23T12:41:47.946Z,23.91
2018-05-23T12:42:47.946Z,24.02
2018-05-23T12:43:47.957Z,23.96
2018-05-23T12:44:47.949Z,24.1
2018-05-23T12:45:47.958Z,24.01
2018-05-23T12:46:48.214Z,23.99
2018-05-23T12:47:47.713Z,24.17
2018-05-23T12:48:47.991Z,24.2
2018-05-23T12:49:47.992Z,24.3
2018-05-23T12:50:48.260Z,24.32
2018-05-23T12:51:48.024Z,24.5
2018-05-23T12:52:48.257Z,24.58
2018-05-23T12:53:48.019Z,24.93
2018-05-23T12:54:51.513Z,24.88
2018-05-23T12:55:48.024Z,25.04
2018-05-23T12:56:47.756Z,25.29
2018-05-23T12:57:48.308Z,25.33
2018-05-23T12:58:48.024Z,25.5
2018-05-23T12:59:48.565Z,25.68
2018-05-23T13:00:48.345Z,25.62
2018-05-23T13:01:48.036Z,25.55
2018-05-23T13:02:48.316Z,25.55
2018-05-23T13:03:48.308Z,25.32
2018-05-23T13:04:48.051Z,25.21
2018-05-23T13:05:48.322Z,25.11
2018-05-23T13:06:48.358Z,24.92
2018-05-23T13:07:48.335Z,24.76
2018-05-23T13:08:48.084Z,24.7
2018-05-23T13:09:47.821Z,24.73
2018-05-23T13:10:48.339Z,24.66
2018-05-23T13:11:48.099Z,24.74
2018-05-23T13:12:48.239Z,24.78
2018-05-23T13:13:48.353Z,24.81
2018-05-23T13:14:48.471Z,24.86
2018-05-23T13:15:48.371Z,24.93
2018-05-23T13:16:48.392Z,24.89
2018-05-23T13:17:47.921Z,24.89
2018-05-23T13:18:48.383Z,24.85
2018-05-23T13:19:48.378Z,24.98
2018-05-23T13:20:48.123Z,24.98
2018-05-23T13:21:47.873Z,24.88
2018-05-23T13:22:48.150Z,24.86
2018-05-23T13:23:48.403Z,24.65
2018-05-23T13:24:48.156Z,24.57
2018-05-23T13:25:48.459Z,24.47
2018-05-23T13:26:47.904Z,24.45
2018-05-23T13:27:48.166Z,24.54
2018-05-23T13:28:48.168Z,24.55
2018-05-23T13:29:48.443Z,24.63
2018-05-23T13:30:48.173Z,24.63
2018-05-23T13:31:48.181Z,24.58
2018-05-23T13:32:48.183Z,24.53
2018-05-23T13:33:47.932Z,24.43